sensor_id;sensor_type;location;lat;lon;timestamp;P1;durP1;ratioP1;P2;durP2;ratioP2
45354;SDS011;31091;48.758;9.150;2023-03-21T00:02:05;5.43;;;2.33;;
45354;SDS011;31091;48.758;9.150;2023-03-21T00:04:50;4.13;;;2.10;;
45354;SDS011;31091;48.758;9.150;2023-03-21T00:07:36;3.50;;;1.95;;
45354;SDS011;31091;48.758;9.150;2023-03-21T00:10:21;3.40;;;2.20;;
45354;SDS011;31091;48.758;9.150;2023-03-21T00:13:06;5.32;;;2.35;;
45354;SDS011;31091;48.758;9.150;2023-03-21T00:15:51;3.42;;;1.67;;
45354;SDS011;31091;48.758;9.150;2023-03-21T00:18:38;6.50;;;2.08;;
45354;SDS011;31091;48.758;9.150;2023-03-21T00:21:25;5.57;;;2.10;;
45354;SDS011;31091;48.758;9.150;2023-03-21T00:24:16;3.28;;;2.25;;
45354;SDS011;31091;48.758;9.150;2023-03-21T00:27:01;5.40;;;1.98;;
45354;SDS011;31091;48.758;9.150;2023-03-21T00:29:47;4.13;;;2.42;;
45354;SDS011;31091;48.758;9.150;2023-03-21T00:32:33;2.30;;;1.70;;
45354;SDS011;31091;48.758;9.150;2023-03-21T00:35:18;3.65;;;1.88;;
45354;SDS011;31091;48.758;9.150;2023-03-21T00:38:03;5.82;;;2.17;;
45354;SDS011;31091;48.758;9.150;2023-03-21T00:40:49;7.00;;;2.17;;
45354;SDS011;31091;48.758;9.150;2023-03-21T00:43:34;7.82;;;2.65;;
45354;SDS011;31091;48.758;9.150;2023-03-21T00:46:20;7.32;;;2.72;;
45354;SDS011;31091;48.758;9.150;2023-03-21T00:49:05;4.55;;;2.20;;
45354;SDS011;31091;48.758;9.150;2023-03-21T00:51:50;4.13;;;1.80;;
45354;SDS011;31091;48.758;9.150;2023-03-21T00:54:36;3.83;;;1.92;;
45354;SDS011;31091;48.758;9.150;2023-03-21T00:57:21;4.63;;;2.15;;
45354;SDS011;31091;48.758;9.150;2023-03-21T01:00:07;2.40;;;1.63;;
45354;SDS011;31091;48.758;9.150;2023-03-21T01:02:54;4.75;;;2.10;;
45354;SDS011;31091;48.758;9.150;2023-03-21T01:05:43;5.05;;;1.88;;
45354;SDS011;31091;48.758;9.150;2023-03-21T01:08:48;4.35;;;1.77;;
45354;SDS011;31091;48.758;9.150;2023-03-21T01:11:33;4.15;;;1.95;;
45354;SDS011;31091;48.758;9.150;2023-03-21T01:14:19;4.97;;;2.10;;
45354;SDS011;31091;48.758;9.150;2023-03-21T01:17:05;6.15;;;1.95;;
45354;SDS011;31091;48.758;9.150;2023-03-21T01:19:50;4.68;;;2.15;;
45354;SDS011;31091;48.758;9.150;2023-03-21T01:22:35;3.25;;;1.90;;
45354;SDS011;31091;48.758;9.150;2023-03-21T01:25:20;3.83;;;1.90;;
45354;SDS011;31091;48.758;9.150;2023-03-21T01:28:06;8.02;;;2.63;;
45354;SDS011;31091;48.758;9.150;2023-03-21T01:30:51;5.90;;;1.90;;
45354;SDS011;31091;48.758;9.150;2023-03-21T01:33:36;5.20;;;2.25;;
45354;SDS011;31091;48.758;9.150;2023-03-21T01:36:23;5.05;;;2.08;;
45354;SDS011;31091;48.758;9.150;2023-03-21T01:39:08;2.50;;;1.70;;
45354;SDS011;31091;48.758;9.150;2023-03-21T01:41:53;4.90;;;1.88;;
45354;SDS011;31091;48.758;9.150;2023-03-21T01:44:55;6.20;;;2.03;;
45354;SDS011;31091;48.758;9.150;2023-03-21T01:47:41;5.97;;;2.35;;
45354;SDS011;31091;48.758;9.150;2023-03-21T01:50:27;3.53;;;1.80;;
45354;SDS011;31091;48.758;9.150;2023-03-21T01:53:12;3.80;;;1.88;;
45354;SDS011;31091;48.758;9.150;2023-03-21T01:55:58;5.32;;;2.72;;
45354;SDS011;31091;48.758;9.150;2023-03-21T01:58:45;2.60;;;1.92;;
45354;SDS011;31091;48.758;9.150;2023-03-21T02:01:30;3.88;;;1.80;;
45354;SDS011;31091;48.758;9.150;2023-03-21T02:04:18;3.33;;;1.73;;
45354;SDS011;31091;48.758;9.150;2023-03-21T02:07:07;3.70;;;1.50;;
45354;SDS011;31091;48.758;9.150;2023-03-21T02:09:53;4.00;;;1.73;;
45354;SDS011;31091;48.758;9.150;2023-03-21T02:12:40;6.57;;;2.15;;
45354;SDS011;31091;48.758;9.150;2023-03-21T02:15:25;4.03;;;1.92;;
45354;SDS011;31091;48.758;9.150;2023-03-21T02:18:21;5.05;;;1.98;;
45354;SDS011;31091;48.758;9.150;2023-03-21T02:21:29;4.10;;;2.00;;
45354;SDS011;31091;48.758;9.150;2023-03-21T02:27:09;3.50;;;1.70;;
45354;SDS011;31091;48.758;9.150;2023-03-21T02:38:59;2.70;;;1.65;;
45354;SDS011;31091;48.758;9.150;2023-03-21T02:41:59;5.38;;;2.03;;
45354;SDS011;31091;48.758;9.150;2023-03-21T02:47:48;3.80;;;1.92;;
45354;SDS011;31091;48.758;9.150;2023-03-21T02:50:37;6.20;;;2.60;;
45354;SDS011;31091;48.758;9.150;2023-03-21T02:53:27;5.45;;;2.17;;
45354;SDS011;31091;48.758;9.150;2023-03-21T02:56:14;4.05;;;1.67;;
45354;SDS011;31091;48.758;9.150;2023-03-21T02:58:59;4.10;;;2.53;;
45354;SDS011;31091;48.758;9.150;2023-03-21T03:01:45;6.05;;;1.88;;
45354;SDS011;31091;48.758;9.150;2023-03-21T03:04:30;11.98;;;2.80;;
45354;SDS011;31091;48.758;9.150;2023-03-21T03:10:20;4.28;;;1.83;;
45354;SDS011;31091;48.758;9.150;2023-03-21T03:16:05;4.10;;;2.05;;
45354;SDS011;31091;48.758;9.150;2023-03-21T03:18:57;4.72;;;1.63;;
45354;SDS011;31091;48.758;9.150;2023-03-21T03:21:48;2.97;;;1.75;;
45354;SDS011;31091;48.758;9.150;2023-03-21T03:24:41;5.65;;;2.47;;
45354;SDS011;31091;48.758;9.150;2023-03-21T03:27:31;2.95;;;1.70;;
45354;SDS011;31091;48.758;9.150;2023-03-21T03:30:17;3.03;;;1.90;;
45354;SDS011;31091;48.758;9.150;2023-03-21T03:33:02;4.63;;;2.20;;
45354;SDS011;31091;48.758;9.150;2023-03-21T03:35:50;4.93;;;1.92;;
45354;SDS011;31091;48.758;9.150;2023-03-21T03:38:37;2.22;;;1.55;;
45354;SDS011;31091;48.758;9.150;2023-03-21T03:41:26;3.35;;;1.80;;
45354;SDS011;31091;48.758;9.150;2023-03-21T03:44:12;5.65;;;1.92;;
45354;SDS011;31091;48.758;9.150;2023-03-21T03:47:07;4.10;;;1.98;;
45354;SDS011;31091;48.758;9.150;2023-03-21T03:52:55;5.72;;;2.10;;
45354;SDS011;31091;48.758;9.150;2023-03-21T03:55:42;4.22;;;2.35;;
45354;SDS011;31091;48.758;9.150;2023-03-21T03:58:27;3.70;;;2.28;;
45354;SDS011;31091;48.758;9.150;2023-03-21T04:01:13;4.43;;;2.08;;
45354;SDS011;31091;48.758;9.150;2023-03-21T04:03:58;7.07;;;2.35;;
45354;SDS011;31091;48.758;9.150;2023-03-21T04:06:44;3.70;;;2.13;;
45354;SDS011;31091;48.758;9.150;2023-03-21T04:09:35;4.13;;;2.10;;
45354;SDS011;31091;48.758;9.150;2023-03-21T04:12:21;4.63;;;2.60;;
45354;SDS011;31091;48.758;9.150;2023-03-21T04:15:06;4.90;;;2.13;;
45354;SDS011;31091;48.758;9.150;2023-03-21T04:17:51;6.13;;;2.53;;
45354;SDS011;31091;48.758;9.150;2023-03-21T04:20:37;6.35;;;2.13;;
45354;SDS011;31091;48.758;9.150;2023-03-21T04:23:22;6.03;;;2.40;;
45354;SDS011;31091;48.758;9.150;2023-03-21T04:26:08;5.30;;;2.88;;
45354;SDS011;31091;48.758;9.150;2023-03-21T04:28:53;5.15;;;2.15;;
45354;SDS011;31091;48.758;9.150;2023-03-21T04:31:38;5.47;;;1.88;;
45354;SDS011;31091;48.758;9.150;2023-03-21T04:34:25;4.68;;;2.08;;
45354;SDS011;31091;48.758;9.150;2023-03-21T04:37:12;4.50;;;2.25;;
45354;SDS011;31091;48.758;9.150;2023-03-21T04:39:57;6.15;;;1.98;;
45354;SDS011;31091;48.758;9.150;2023-03-21T04:42:42;5.15;;;2.75;;
45354;SDS011;31091;48.758;9.150;2023-03-21T04:45:27;3.60;;;1.90;;
45354;SDS011;31091;48.758;9.150;2023-03-21T04:48:13;5.35;;;2.28;;
45354;SDS011;31091;48.758;9.150;2023-03-21T04:50:59;7.18;;;2.20;;
45354;SDS011;31091;48.758;9.150;2023-03-21T04:53:45;5.75;;;2.55;;
45354;SDS011;31091;48.758;9.150;2023-03-21T04:56:33;5.93;;;2.80;;
45354;SDS011;31091;48.758;9.150;2023-03-21T04:59:20;3.88;;;2.53;;
45354;SDS011;31091;48.758;9.150;2023-03-21T05:02:05;3.70;;;2.40;;
45354;SDS011;31091;48.758;9.150;2023-03-21T05:04:51;8.68;;;2.38;;
45354;SDS011;31091;48.758;9.150;2023-03-21T05:07:39;7.75;;;2.28;;
45354;SDS011;31091;48.758;9.150;2023-03-21T05:10:25;12.07;;;2.40;;
45354;SDS011;31091;48.758;9.150;2023-03-21T05:13:10;7.53;;;2.75;;
45354;SDS011;31091;48.758;9.150;2023-03-21T05:15:55;6.75;;;2.70;;
45354;SDS011;31091;48.758;9.150;2023-03-21T05:18:40;3.47;;;1.90;;
45354;SDS011;31091;48.758;9.150;2023-03-21T05:21:26;6.88;;;2.05;;
45354;SDS011;31091;48.758;9.150;2023-03-21T05:24:18;5.15;;;2.42;;
45354;SDS011;31091;48.758;9.150;2023-03-21T05:27:04;8.25;;;2.42;;
45354;SDS011;31091;48.758;9.150;2023-03-21T05:29:50;4.82;;;2.15;;
45354;SDS011;31091;48.758;9.150;2023-03-21T05:32:35;5.15;;;2.15;;
45354;SDS011;31091;48.758;9.150;2023-03-21T05:35:20;8.23;;;2.60;;
45354;SDS011;31091;48.758;9.150;2023-03-21T05:38:05;4.20;;;2.33;;
45354;SDS011;31091;48.758;9.150;2023-03-21T05:40:51;7.53;;;2.47;;
45354;SDS011;31091;48.758;9.150;2023-03-21T05:43:37;4.60;;;2.58;;
45354;SDS011;31091;48.758;9.150;2023-03-21T05:46:23;5.05;;;2.10;;
45354;SDS011;31091;48.758;9.150;2023-03-21T05:49:08;4.43;;;2.65;;
45354;SDS011;31091;48.758;9.150;2023-03-21T05:51:53;3.60;;;2.30;;
45354;SDS011;31091;48.758;9.150;2023-03-21T05:54:39;5.72;;;3.60;;
45354;SDS011;31091;48.758;9.150;2023-03-21T05:57:24;5.97;;;2.50;;
45354;SDS011;31091;48.758;9.150;2023-03-21T06:00:13;5.60;;;2.45;;
45354;SDS011;31091;48.758;9.150;2023-03-21T06:02:58;5.15;;;2.20;;
45354;SDS011;31091;48.758;9.150;2023-03-21T06:05:43;5.85;;;2.47;;
45354;SDS011;31091;48.758;9.150;2023-03-21T06:08:29;5.88;;;2.50;;
45354;SDS011;31091;48.758;9.150;2023-03-21T06:11:26;6.05;;;2.60;;
45354;SDS011;31091;48.758;9.150;2023-03-21T06:14:12;4.13;;;2.50;;
45354;SDS011;31091;48.758;9.150;2023-03-21T06:16:57;5.25;;;2.53;;
45354;SDS011;31091;48.758;9.150;2023-03-21T06:19:42;7.75;;;3.53;;
45354;SDS011;31091;48.758;9.150;2023-03-21T06:22:27;7.30;;;3.00;;
45354;SDS011;31091;48.758;9.150;2023-03-21T06:25:13;7.32;;;2.58;;
45354;SDS011;31091;48.758;9.150;2023-03-21T06:27:58;4.93;;;2.67;;
45354;SDS011;31091;48.758;9.150;2023-03-21T06:30:43;6.03;;;2.42;;
45354;SDS011;31091;48.758;9.150;2023-03-21T06:33:28;6.20;;;3.03;;
45354;SDS011;31091;48.758;9.150;2023-03-21T06:36:14;5.30;;;2.80;;
45354;SDS011;31091;48.758;9.150;2023-03-21T06:38:59;7.25;;;2.90;;
45354;SDS011;31091;48.758;9.150;2023-03-21T06:41:45;6.43;;;3.05;;
45354;SDS011;31091;48.758;9.150;2023-03-21T06:44:30;6.43;;;2.78;;
45354;SDS011;31091;48.758;9.150;2023-03-21T06:47:16;6.22;;;2.72;;
45354;SDS011;31091;48.758;9.150;2023-03-21T06:50:01;6.35;;;2.90;;
45354;SDS011;31091;48.758;9.150;2023-03-21T06:52:47;8.50;;;2.83;;
45354;SDS011;31091;48.758;9.150;2023-03-21T06:55:32;6.78;;;2.92;;
45354;SDS011;31091;48.758;9.150;2023-03-21T06:58:17;5.53;;;2.92;;
45354;SDS011;31091;48.758;9.150;2023-03-21T07:01:03;6.90;;;3.20;;
45354;SDS011;31091;48.758;9.150;2023-03-21T07:03:49;5.70;;;2.42;;
45354;SDS011;31091;48.758;9.150;2023-03-21T07:06:34;9.15;;;3.10;;
45354;SDS011;31091;48.758;9.150;2023-03-21T07:09:20;3.42;;;2.38;;
45354;SDS011;31091;48.758;9.150;2023-03-21T07:12:08;5.68;;;2.55;;
45354;SDS011;31091;48.758;9.150;2023-03-21T07:14:54;10.75;;;2.40;;
45354;SDS011;31091;48.758;9.150;2023-03-21T07:17:39;4.22;;;2.20;;
45354;SDS011;31091;48.758;9.150;2023-03-21T07:20:24;4.72;;;2.50;;
45354;SDS011;31091;48.758;9.150;2023-03-21T07:23:10;5.07;;;2.42;;
45354;SDS011;31091;48.758;9.150;2023-03-21T07:25:56;7.57;;;2.80;;
45354;SDS011;31091;48.758;9.150;2023-03-21T07:28:41;11.68;;;2.90;;
45354;SDS011;31091;48.758;9.150;2023-03-21T07:31:26;6.55;;;2.67;;
45354;SDS011;31091;48.758;9.150;2023-03-21T07:34:11;4.95;;;2.47;;
45354;SDS011;31091;48.758;9.150;2023-03-21T07:36:56;6.57;;;2.92;;
45354;SDS011;31091;48.758;9.150;2023-03-21T07:39:42;9.00;;;2.28;;
45354;SDS011;31091;48.758;9.150;2023-03-21T07:42:27;3.10;;;2.10;;
45354;SDS011;31091;48.758;9.150;2023-03-21T07:45:12;6.88;;;2.35;;
45354;SDS011;31091;48.758;9.150;2023-03-21T07:48:05;7.78;;;2.35;;
45354;SDS011;31091;48.758;9.150;2023-03-21T07:50:51;5.90;;;3.15;;
45354;SDS011;31091;48.758;9.150;2023-03-21T07:53:36;5.38;;;2.45;;
45354;SDS011;31091;48.758;9.150;2023-03-21T07:56:21;4.78;;;2.38;;
45354;SDS011;31091;48.758;9.150;2023-03-21T07:59:06;4.72;;;2.42;;
45354;SDS011;31091;48.758;9.150;2023-03-21T08:01:52;5.60;;;2.33;;
45354;SDS011;31091;48.758;9.150;2023-03-21T08:04:37;3.85;;;2.20;;
45354;SDS011;31091;48.758;9.150;2023-03-21T08:07:23;3.25;;;1.95;;
45354;SDS011;31091;48.758;9.150;2023-03-21T08:10:08;4.72;;;1.95;;
45354;SDS011;31091;48.758;9.150;2023-03-21T08:12:54;3.55;;;1.90;;
45354;SDS011;31091;48.758;9.150;2023-03-21T08:15:40;3.65;;;2.10;;
45354;SDS011;31091;48.758;9.150;2023-03-21T08:18:26;10.93;;;2.25;;
45354;SDS011;31091;48.758;9.150;2023-03-21T08:21:11;2.85;;;1.80;;
45354;SDS011;31091;48.758;9.150;2023-03-21T08:23:56;2.85;;;1.70;;
45354;SDS011;31091;48.758;9.150;2023-03-21T08:26:41;3.78;;;1.80;;
45354;SDS011;31091;48.758;9.150;2023-03-21T08:29:28;8.05;;;2.67;;
45354;SDS011;31091;48.758;9.150;2023-03-21T08:32:13;3.17;;;1.80;;
45354;SDS011;31091;48.758;9.150;2023-03-21T08:34:59;4.05;;;2.03;;
45354;SDS011;31091;48.758;9.150;2023-03-21T08:37:44;3.13;;;1.67;;
45354;SDS011;31091;48.758;9.150;2023-03-21T08:40:30;4.22;;;1.52;;
45354;SDS011;31091;48.758;9.150;2023-03-21T08:43:15;5.18;;;1.77;;
45354;SDS011;31091;48.758;9.150;2023-03-21T08:46:00;2.28;;;1.80;;
45354;SDS011;31091;48.758;9.150;2023-03-21T08:48:48;4.78;;;1.65;;
45354;SDS011;31091;48.758;9.150;2023-03-21T08:51:33;3.17;;;1.52;;
45354;SDS011;31091;48.758;9.150;2023-03-21T08:54:19;3.38;;;1.65;;
45354;SDS011;31091;48.758;9.150;2023-03-21T08:57:04;1.80;;;1.45;;
45354;SDS011;31091;48.758;9.150;2023-03-21T08:59:49;3.00;;;1.60;;
45354;SDS011;31091;48.758;9.150;2023-03-21T09:02:35;2.10;;;1.50;;
45354;SDS011;31091;48.758;9.150;2023-03-21T09:05:20;3.58;;;1.40;;
45354;SDS011;31091;48.758;9.150;2023-03-21T09:08:06;3.00;;;1.58;;
45354;SDS011;31091;48.758;9.150;2023-03-21T09:10:52;4.13;;;1.77;;
45354;SDS011;31091;48.758;9.150;2023-03-21T09:13:38;5.18;;;1.92;;
45354;SDS011;31091;48.758;9.150;2023-03-21T09:16:26;2.70;;;1.58;;
45354;SDS011;31091;48.758;9.150;2023-03-21T09:19:11;2.88;;;1.73;;
45354;SDS011;31091;48.758;9.150;2023-03-21T09:21:56;1.58;;;1.25;;
45354;SDS011;31091;48.758;9.150;2023-03-21T09:24:45;4.05;;;1.20;;
45354;SDS011;31091;48.758;9.150;2023-03-21T09:27:31;2.70;;;1.58;;
45354;SDS011;31091;48.758;9.150;2023-03-21T09:30:19;5.47;;;1.33;;
45354;SDS011;31091;48.758;9.150;2023-03-21T09:33:05;4.43;;;1.88;;
45354;SDS011;31091;48.758;9.150;2023-03-21T09:35:52;1.27;;;1.10;;
45354;SDS011;31091;48.758;9.150;2023-03-21T09:38:38;3.03;;;1.25;;
45354;SDS011;31091;48.758;9.150;2023-03-21T09:47:37;4.80;;;1.45;;
45354;SDS011;31091;48.758;9.150;2023-03-21T09:50:30;2.53;;;1.58;;
45354;SDS011;31091;48.758;9.150;2023-03-21T09:53:21;3.22;;;1.10;;
45354;SDS011;31091;48.758;9.150;2023-03-21T09:56:08;3.45;;;1.30;;
45354;SDS011;31091;48.758;9.150;2023-03-21T09:58:56;1.90;;;1.30;;
45354;SDS011;31091;48.758;9.150;2023-03-21T10:01:43;3.08;;;1.55;;
45354;SDS011;31091;48.758;9.150;2023-03-21T10:04:30;2.30;;;1.10;;
45354;SDS011;31091;48.758;9.150;2023-03-21T10:07:16;1.80;;;1.10;;
45354;SDS011;31091;48.758;9.150;2023-03-21T10:10:03;2.13;;;1.23;;
45354;SDS011;31091;48.758;9.150;2023-03-21T10:12:50;2.25;;;1.45;;
45354;SDS011;31091;48.758;9.150;2023-03-21T10:15:36;1.38;;;1.10;;
45354;SDS011;31091;48.758;9.150;2023-03-21T10:18:22;6.13;;;1.60;;
45354;SDS011;31091;48.758;9.150;2023-03-21T10:21:14;1.45;;;1.00;;
45354;SDS011;31091;48.758;9.150;2023-03-21T10:24:02;2.30;;;1.38;;
45354;SDS011;31091;48.758;9.150;2023-03-21T10:26:49;2.75;;;1.40;;
45354;SDS011;31091;48.758;9.150;2023-03-21T10:29:42;5.10;;;1.38;;
45354;SDS011;31091;48.758;9.150;2023-03-21T10:32:28;1.58;;;1.10;;
45354;SDS011;31091;48.758;9.150;2023-03-21T10:35:13;2.80;;;1.20;;
45354;SDS011;31091;48.758;9.150;2023-03-21T10:37:59;1.92;;;1.25;;
45354;SDS011;31091;48.758;9.150;2023-03-21T10:40:45;1.60;;;1.40;;
45354;SDS011;31091;48.758;9.150;2023-03-21T10:43:32;1.77;;;1.20;;
45354;SDS011;31091;48.758;9.150;2023-03-21T10:46:19;2.25;;;1.17;;
45354;SDS011;31091;48.758;9.150;2023-03-21T10:49:07;3.15;;;1.40;;
45354;SDS011;31091;48.758;9.150;2023-03-21T10:51:54;1.80;;;1.35;;
45354;SDS011;31091;48.758;9.150;2023-03-21T10:54:40;2.30;;;1.15;;
45354;SDS011;31091;48.758;9.150;2023-03-21T10:57:26;3.55;;;1.35;;
45354;SDS011;31091;48.758;9.150;2023-03-21T11:00:19;2.13;;;1.42;;
45354;SDS011;31091;48.758;9.150;2023-03-21T11:03:05;2.10;;;1.20;;
45354;SDS011;31091;48.758;9.150;2023-03-21T11:05:55;3.67;;;1.15;;
45354;SDS011;31091;48.758;9.150;2023-03-21T11:08:45;2.00;;;1.20;;
45354;SDS011;31091;48.758;9.150;2023-03-21T11:11:36;4.60;;;1.25;;
45354;SDS011;31091;48.758;9.150;2023-03-21T11:20:06;2.80;;;1.00;;
45354;SDS011;31091;48.758;9.150;2023-03-21T11:22:55;0.98;;;0.82;;
45354;SDS011;31091;48.758;9.150;2023-03-21T11:25:41;2.45;;;1.30;;
45354;SDS011;31091;48.758;9.150;2023-03-21T11:28:37;2.15;;;1.10;;
45354;SDS011;31091;48.758;9.150;2023-03-21T11:31:35;1.55;;;0.93;;
45354;SDS011;31091;48.758;9.150;2023-03-21T11:37:23;2.38;;;1.08;;
45354;SDS011;31091;48.758;9.150;2023-03-21T11:45:54;1.20;;;0.90;;
45354;SDS011;31091;48.758;9.150;2023-03-21T11:48:41;1.83;;;0.90;;
45354;SDS011;31091;48.758;9.150;2023-03-21T11:57:38;1.20;;;0.90;;
45354;SDS011;31091;48.758;9.150;2023-03-21T12:00:28;3.15;;;0.90;;
45354;SDS011;31091;48.758;9.150;2023-03-21T12:03:37;2.38;;;1.00;;
45354;SDS011;31091;48.758;9.150;2023-03-21T12:26:39;2.50;;;1.20;;
45354;SDS011;31091;48.758;9.150;2023-03-21T12:29:29;2.67;;;1.20;;
45354;SDS011;31091;48.758;9.150;2023-03-21T12:32:21;1.48;;;1.10;;
45354;SDS011;31091;48.758;9.150;2023-03-21T12:35:31;2.22;;;1.40;;
45354;SDS011;31091;48.758;9.150;2023-03-21T12:38:22;2.67;;;1.58;;
45354;SDS011;31091;48.758;9.150;2023-03-21T12:41:18;2.40;;;1.58;;
45354;SDS011;31091;48.758;9.150;2023-03-21T12:44:04;1.83;;;1.27;;
45354;SDS011;31091;48.758;9.150;2023-03-21T12:49:41;1.58;;;1.20;;
45354;SDS011;31091;48.758;9.150;2023-03-21T12:52:31;5.93;;;1.55;;
45354;SDS011;31091;48.758;9.150;2023-03-21T12:58:03;3.03;;;1.30;;
45354;SDS011;31091;48.758;9.150;2023-03-21T13:00:56;2.45;;;1.70;;
45354;SDS011;31091;48.758;9.150;2023-03-21T13:03:46;1.60;;;1.10;;
45354;SDS011;31091;48.758;9.150;2023-03-21T13:06:34;5.63;;;1.50;;
45354;SDS011;31091;48.758;9.150;2023-03-21T13:09:25;2.20;;;0.98;;
45354;SDS011;31091;48.758;9.150;2023-03-21T13:15:04;3.20;;;1.20;;
45354;SDS011;31091;48.758;9.150;2023-03-21T13:17:51;1.73;;;1.33;;
45354;SDS011;31091;48.758;9.150;2023-03-21T13:23:33;3.92;;;1.30;;
45354;SDS011;31091;48.758;9.150;2023-03-21T13:26:18;2.35;;;1.10;;
45354;SDS011;31091;48.758;9.150;2023-03-21T13:32:29;1.65;;;1.13;;
45354;SDS011;31091;48.758;9.150;2023-03-21T13:35:21;3.28;;;1.60;;
45354;SDS011;31091;48.758;9.150;2023-03-21T13:38:21;3.08;;;1.08;;
45354;SDS011;31091;48.758;9.150;2023-03-21T13:41:12;1.75;;;1.02;;
45354;SDS011;31091;48.758;9.150;2023-03-21T13:47:01;2.65;;;1.23;;
45354;SDS011;31091;48.758;9.150;2023-03-21T13:50:10;1.42;;;1.27;;
45354;SDS011;31091;48.758;9.150;2023-03-21T13:55:58;4.78;;;1.10;;
45354;SDS011;31091;48.758;9.150;2023-03-21T14:01:39;2.95;;;1.27;;
45354;SDS011;31091;48.758;9.150;2023-03-21T14:04:28;1.08;;;0.80;;
45354;SDS011;31091;48.758;9.150;2023-03-21T14:07:17;1.42;;;0.90;;
45354;SDS011;31091;48.758;9.150;2023-03-21T14:10:07;1.80;;;1.10;;
45354;SDS011;31091;48.758;9.150;2023-03-21T14:13:01;0.80;;;0.80;;
45354;SDS011;31091;48.758;9.150;2023-03-21T14:18:38;2.47;;;0.90;;
45354;SDS011;31091;48.758;9.150;2023-03-21T14:21:26;1.70;;;1.00;;
45354;SDS011;31091;48.758;9.150;2023-03-21T14:24:13;1.48;;;1.08;;
45354;SDS011;31091;48.758;9.150;2023-03-21T14:26:58;4.15;;;1.80;;
45354;SDS011;31091;48.758;9.150;2023-03-21T14:29:45;3.28;;;1.88;;
45354;SDS011;31091;48.758;9.150;2023-03-21T14:32:31;5.85;;;1.90;;
45354;SDS011;31091;48.758;9.150;2023-03-21T14:35:16;3.60;;;1.52;;
45354;SDS011;31091;48.758;9.150;2023-03-21T14:38:05;4.72;;;2.10;;
45354;SDS011;31091;48.758;9.150;2023-03-21T14:40:54;4.43;;;2.13;;
45354;SDS011;31091;48.758;9.150;2023-03-21T14:43:39;3.40;;;1.95;;
45354;SDS011;31091;48.758;9.150;2023-03-21T14:46:25;5.90;;;2.05;;
45354;SDS011;31091;48.758;9.150;2023-03-21T14:52:35;5.82;;;2.05;;
45354;SDS011;31091;48.758;9.150;2023-03-21T14:55:14;6.10;;;2.33;;
45354;SDS011;31091;48.758;9.150;2023-03-21T14:58:00;5.60;;;1.95;;
45354;SDS011;31091;48.758;9.150;2023-03-21T15:00:46;3.75;;;2.00;;
45354;SDS011;31091;48.758;9.150;2023-03-21T15:03:32;9.82;;;2.20;;
45354;SDS011;31091;48.758;9.150;2023-03-21T15:06:18;4.40;;;2.13;;
45354;SDS011;31091;48.758;9.150;2023-03-21T15:09:03;4.90;;;2.08;;
45354;SDS011;31091;48.758;9.150;2023-03-21T15:11:50;5.38;;;2.28;;
45354;SDS011;31091;48.758;9.150;2023-03-21T15:14:36;5.90;;;2.20;;
45354;SDS011;31091;48.758;9.150;2023-03-21T15:17:21;5.88;;;2.67;;
45354;SDS011;31091;48.758;9.150;2023-03-21T15:20:12;5.50;;;2.92;;
45354;SDS011;31091;48.758;9.150;2023-03-21T15:23:41;8.45;;;3.10;;
45354;SDS011;31091;48.758;9.150;2023-03-21T15:26:07;5.30;;;2.53;;
45354;SDS011;31091;48.758;9.150;2023-03-21T15:28:57;6.55;;;2.53;;
45354;SDS011;31091;48.758;9.150;2023-03-21T15:31:42;7.72;;;2.70;;
45354;SDS011;31091;48.758;9.150;2023-03-21T15:34:30;5.28;;;2.53;;
45354;SDS011;31091;48.758;9.150;2023-03-21T15:37:17;6.03;;;2.38;;
45354;SDS011;31091;48.758;9.150;2023-03-21T15:40:14;4.60;;;2.10;;
45354;SDS011;31091;48.758;9.150;2023-03-21T15:43:13;4.22;;;1.88;;
45354;SDS011;31091;48.758;9.150;2023-03-21T15:45:59;4.63;;;2.15;;
45354;SDS011;31091;48.758;9.150;2023-03-21T15:48:44;4.53;;;2.00;;
45354;SDS011;31091;48.758;9.150;2023-03-21T15:51:30;3.08;;;1.98;;
45354;SDS011;31091;48.758;9.150;2023-03-21T15:54:19;3.95;;;2.17;;
45354;SDS011;31091;48.758;9.150;2023-03-21T15:59:54;4.78;;;2.22;;
45354;SDS011;31091;48.758;9.150;2023-03-21T16:02:40;7.82;;;2.80;;
45354;SDS011;31091;48.758;9.150;2023-03-21T16:05:27;7.03;;;2.90;;
45354;SDS011;31091;48.758;9.150;2023-03-21T16:08:20;4.47;;;2.17;;
45354;SDS011;31091;48.758;9.150;2023-03-21T16:14:06;5.75;;;2.30;;
45354;SDS011;31091;48.758;9.150;2023-03-21T16:16:51;6.18;;;2.63;;
45354;SDS011;31091;48.758;9.150;2023-03-21T16:19:36;6.20;;;2.88;;
45354;SDS011;31091;48.758;9.150;2023-03-21T16:22:22;9.48;;;2.58;;
45354;SDS011;31091;48.758;9.150;2023-03-21T16:25:07;3.33;;;2.10;;
45354;SDS011;31091;48.758;9.150;2023-03-21T16:27:53;6.35;;;2.42;;
45354;SDS011;31091;48.758;9.150;2023-03-21T16:30:38;4.90;;;2.60;;
45354;SDS011;31091;48.758;9.150;2023-03-21T16:33:23;6.72;;;2.72;;
45354;SDS011;31091;48.758;9.150;2023-03-21T16:36:13;6.65;;;2.90;;
45354;SDS011;31091;48.758;9.150;2023-03-21T16:38:59;7.38;;;2.80;;
45354;SDS011;31091;48.758;9.150;2023-03-21T16:41:44;7.35;;;2.72;;
45354;SDS011;31091;48.758;9.150;2023-03-21T16:44:30;6.43;;;2.95;;
45354;SDS011;31091;48.758;9.150;2023-03-21T16:47:16;8.88;;;3.08;;
45354;SDS011;31091;48.758;9.150;2023-03-21T16:50:09;7.43;;;2.80;;
45354;SDS011;31091;48.758;9.150;2023-03-21T16:52:59;10.25;;;2.83;;
45354;SDS011;31091;48.758;9.150;2023-03-21T16:55:44;5.53;;;2.70;;
45354;SDS011;31091;48.758;9.150;2023-03-21T16:58:29;9.20;;;3.33;;
45354;SDS011;31091;48.758;9.150;2023-03-21T17:01:16;8.27;;;3.58;;
45354;SDS011;31091;48.758;9.150;2023-03-21T17:04:04;5.95;;;2.42;;
45354;SDS011;31091;48.758;9.150;2023-03-21T17:06:50;6.72;;;2.80;;
45354;SDS011;31091;48.758;9.150;2023-03-21T17:09:36;5.97;;;2.35;;
45354;SDS011;31091;48.758;9.150;2023-03-21T17:12:22;7.78;;;2.50;;
45354;SDS011;31091;48.758;9.150;2023-03-21T17:15:07;6.03;;;2.60;;
45354;SDS011;31091;48.758;9.150;2023-03-21T17:17:53;9.63;;;5.38;;
45354;SDS011;31091;48.758;9.150;2023-03-21T17:20:39;5.97;;;2.83;;
45354;SDS011;31091;48.758;9.150;2023-03-21T17:23:25;6.47;;;2.40;;
45354;SDS011;31091;48.758;9.150;2023-03-21T17:26:12;6.78;;;2.42;;
45354;SDS011;31091;48.758;9.150;2023-03-21T17:28:59;6.83;;;2.43;;
45354;SDS011;31091;48.758;9.150;2023-03-21T17:31:45;6.30;;;2.20;;
45354;SDS011;31091;48.758;9.150;2023-03-21T17:34:32;7.70;;;2.92;;
45354;SDS011;31091;48.758;9.150;2023-03-21T17:37:18;4.95;;;2.67;;
45354;SDS011;31091;48.758;9.150;2023-03-21T17:40:04;6.70;;;1.90;;
45354;SDS011;31091;48.758;9.150;2023-03-21T17:42:51;6.30;;;2.17;;
45354;SDS011;31091;48.758;9.150;2023-03-21T17:45:37;7.72;;;2.65;;
45354;SDS011;31091;48.758;9.150;2023-03-21T17:48:22;3.40;;;2.10;;
45354;SDS011;31091;48.758;9.150;2023-03-21T17:51:07;6.50;;;2.25;;
45354;SDS011;31091;48.758;9.150;2023-03-21T17:53:56;9.02;;;3.55;;
45354;SDS011;31091;48.758;9.150;2023-03-21T17:56:42;10.38;;;3.00;;
45354;SDS011;31091;48.758;9.150;2023-03-21T17:59:27;5.07;;;2.58;;
45354;SDS011;31091;48.758;9.150;2023-03-21T18:02:12;6.50;;;2.20;;
45354;SDS011;31091;48.758;9.150;2023-03-21T18:04:57;5.35;;;2.20;;
45354;SDS011;31091;48.758;9.150;2023-03-21T18:07:43;5.80;;;2.80;;
45354;SDS011;31091;48.758;9.150;2023-03-21T18:10:29;10.80;;;2.83;;
45354;SDS011;31091;48.758;9.150;2023-03-21T18:13:14;8.93;;;2.35;;
45354;SDS011;31091;48.758;9.150;2023-03-21T18:15:59;5.28;;;2.47;;
45354;SDS011;31091;48.758;9.150;2023-03-21T18:18:45;6.72;;;2.60;;
45354;SDS011;31091;48.758;9.150;2023-03-21T18:21:30;6.15;;;2.60;;
45354;SDS011;31091;48.758;9.150;2023-03-21T18:24:15;5.10;;;2.75;;
45354;SDS011;31091;48.758;9.150;2023-03-21T18:27:01;14.88;;;3.40;;
45354;SDS011;31091;48.758;9.150;2023-03-21T18:29:46;7.03;;;3.25;;
45354;SDS011;31091;48.758;9.150;2023-03-21T18:32:32;6.55;;;2.72;;
45354;SDS011;31091;48.758;9.150;2023-03-21T18:35:18;7.47;;;2.95;;